Time;durP1;ratioP1;P1;durP2;ratioP2;P2;SDS_P1;SDS_P2;PMS_P1;PMS_P2;Temp;Humidity;BMP_temperature;BMP_pressure;BME280_temperature;BME280_humidity;BME280_pressure;Samples;Min_cycle;Max_cycle;Signal;HPM_P1;HPM_P2
2020/12/03 00:00:49;;;;;;;17.38;10.68;;;2.30;99.90;;;;;;5050326;28;20060;-70
2020/12/03 00:03:21;;;;;;;15.57;10.77;;;2.30;99.90;;;;;;5024695;28;20132;-65
2020/12/03 00:06:14;;;;;;;14.13;10.75;;;2.40;99.90;;;;;;5026404;28;20630;-67
2020/12/03 00:08:44;;;;;;;13.68;11.15;;;2.40;99.90;;;;;;5019890;28;20045;-71
2020/12/03 00:11:34;;;;;;;14.02;11.70;;;2.30;99.90;;;;;;5024895;28;20102;-65
2020/12/03 00:14:00;;;;;;;17.92;12.82;;;2.40;99.90;;;;;;5023883;28;20045;-67
2020/12/03 00:16:29;;;;;;;16.67;12.63;;;2.30;99.90;;;;;;5020490;28;20049;-66
2020/12/03 00:18:57;;;;;;;18.25;12.25;;;2.30;99.90;;;;;;5032110;28;20505;-71
2020/12/03 00:21:42;;;;;;;16.67;12.80;;;2.30;99.90;;;;;;5025545;28;20964;-66
2020/12/03 00:24:12;;;;;;;16.38;12.35;;;2.30;99.90;;;;;;5027473;28;20045;-65
2020/12/03 00:26:39;;;;;;;17.58;13.52;;;2.30;99.90;;;;;;5030923;28;20137;-67
2020/12/03 00:29:06;;;;;;;22.30;12.55;;;2.30;99.90;;;;;;5026716;28;20041;-66
2020/12/03 00:31:33;;;;;;;17.65;12.15;;;2.20;99.90;;;;;;5027992;28;20045;-67
2020/12/03 00:34:02;;;;;;;19.50;13.68;;;2.20;99.90;;;;;;5027314;28;20429;-66
2020/12/03 00:36:28;;;;;;;16.13;11.95;;;2.30;99.90;;;;;;5026874;28;20077;-68
2020/12/03 00:38:55;;;;;;;19.15;12.43;;;2.30;99.90;;;;;;5030293;28;20049;-67
2020/12/03 00:41:21;;;;;;;16.77;13.07;;;2.20;99.90;;;;;;5027339;28;20057;-66
2020/12/03 00:43:48;;;;;;;17.27;12.05;;;2.20;99.90;;;;;;5026750;28;20041;-67
2020/12/03 00:46:15;;;;;;;18.83;13.02;;;2.20;99.90;;;;;;5028319;28;20123;-67
2020/12/03 00:48:42;;;;;;;14.52;11.77;;;2.20;99.90;;;;;;5022403;28;20060;-68
2020/12/03 00:51:11;;;;;;;13.02;11.63;;;2.20;99.90;;;;;;5021188;28;20037;-68
2020/12/03 00:53:40;;;;;;;13.90;11.65;;;2.20;99.90;;;;;;5027711;28;20648;-64
2020/12/03 00:56:08;;;;;;;18.38;11.45;;;2.20;99.90;;;;;;5023356;28;20049;-67
2020/12/03 00:58:35;;;;;;;18.67;11.18;;;2.20;99.90;;;;;;5019337;28;20049;-65
2020/12/03 01:01:03;;;;;;;18.38;11.85;;;2.20;99.90;;;;;;5023092;28;20045;-70
2020/12/03 01:03:29;;;;;;;15.38;11.43;;;2.20;99.90;;;;;;5032687;28;20087;-67
2020/12/03 01:05:55;;;;;;;13.32;10.88;;;2.20;99.90;;;;;;5024373;28;20046;-65
2020/12/03 01:08:22;;;;;;;14.07;11.20;;;2.20;99.90;;;;;;5025419;28;20160;-67
2020/12/03 01:10:49;;;;;;;14.82;10.07;;;2.20;99.90;;;;;;5027757;28;21025;-71
2020/12/03 01:13:15;;;;;;;17.10;11.68;;;2.20;99.90;;;;;;5023603;28;20122;-67
2020/12/03 01:15:42;;;;;;;11.50;9.88;;;2.20;99.90;;;;;;5025035;28;20067;-68
2020/12/03 01:18:08;;;;;;;10.93;9.20;;;2.20;99.90;;;;;;5025576;28;20103;-66
2020/12/03 01:20:35;;;;;;;13.98;10.63;;;2.10;99.90;;;;;;5018509;28;20160;-69
2020/12/03 01:23:01;;;;;;;12.65;10.02;;;2.10;99.90;;;;;;5023405;28;20771;-69
2020/12/03 01:25:28;;;;;;;14.43;10.50;;;2.20;99.90;;;;;;5026007;28;20546;-69
2020/12/03 01:27:54;;;;;;;13.50;9.43;;;2.20;99.90;;;;;;5024015;28;20064;-68
2020/12/03 01:30:21;;;;;;;17.85;10.93;;;2.20;99.90;;;;;;5027872;28;20538;-71
2020/12/03 01:32:49;;;;;;;13.18;9.93;;;2.20;99.90;;;;;;5022400;28;20053;-69
2020/12/03 01:35:16;;;;;;;12.05;9.85;;;2.20;99.90;;;;;;5025566;28;21143;-69
2020/12/03 01:37:47;;;;;;;11.80;10.00;;;2.20;99.90;;;;;;5019954;28;20572;-66
2020/12/03 01:40:16;;;;;;;15.15;10.15;;;2.20;99.90;;;;;;5020969;28;20049;-70
2020/12/03 01:42:43;;;;;;;13.65;9.95;;;2.20;99.90;;;;;;5028168;28;20050;-67
2020/12/03 01:45:43;;;;;;;13.57;9.43;;;2.20;99.90;;;;;;5026881;28;20086;-65
2020/12/03 01:48:37;;;;;;;13.93;10.73;;;2.20;99.90;;;;;;5022522;28;21061;-71
2020/12/03 01:51:09;;;;;;;14.48;11.00;;;2.20;99.90;;;;;;5023053;28;20399;-71
2020/12/03 01:53:36;;;;;;;13.25;9.57;;;2.20;99.90;;;;;;5026484;28;20050;-65
2020/12/03 01:56:17;;;;;;;14.07;10.35;;;2.20;99.90;;;;;;5024860;28;20084;-65
2020/12/03 01:58:45;;;;;;;12.18;10.02;;;2.10;99.90;;;;;;5020773;28;20056;-68
2020/12/03 02:01:11;;;;;;;12.75;10.30;;;2.20;99.90;;;;;;5027414;28;20083;-66
2020/12/03 02:03:49;;;;;;;16.63;11.80;;;2.10;99.90;;;;;;5021634;28;20153;-67
2020/12/03 02:06:21;;;;;;;14.73;11.18;;;2.10;99.90;;;;;;5019704;28;20053;-70
2020/12/03 02:08:48;;;;;;;13.10;9.90;;;2.20;99.90;;;;;;5025781;28;20074;-69
2020/12/03 02:11:16;;;;;;;12.35;9.48;;;2.10;99.90;;;;;;5024389;28;20220;-67
2020/12/03 02:14:01;;;;;;;14.68;10.52;;;2.10;99.90;;;;;;5028922;28;20085;-67
2020/12/03 02:16:31;;;;;;;12.82;9.15;;;2.20;99.90;;;;;;5019930;28;20057;-67
2020/12/03 02:18:58;;;;;;;15.45;9.50;;;2.10;99.90;;;;;;5028309;28;20049;-67
2020/12/03 02:21:25;;;;;;;14.77;9.88;;;2.10;99.90;;;;;;5021827;28;20055;-67
2020/12/03 02:23:52;;;;;;;13.98;10.02;;;2.10;99.90;;;;;;5021659;28;20052;-67
2020/12/03 02:26:19;;;;;;;16.40;10.25;;;2.10;99.90;;;;;;5020415;28;20068;-69
2020/12/03 02:28:46;;;;;;;13.27;9.75;;;2.10;99.90;;;;;;5028169;28;20102;-70
2020/12/03 02:31:13;;;;;;;16.13;11.07;;;2.10;99.90;;;;;;5020931;28;20041;-67
2020/12/03 02:33:39;;;;;;;17.85;9.93;;;2.10;99.90;;;;;;5028656;28;20045;-67
2020/12/03 02:36:06;;;;;;;13.18;9.95;;;2.10;99.90;;;;;;5024687;28;20053;-70
2020/12/03 02:38:33;;;;;;;13.25;10.57;;;2.10;99.90;;;;;;5026855;28;20131;-66
2020/12/03 02:41:00;;;;;;;14.32;10.00;;;2.10;99.90;;;;;;5022951;28;20131;-67
2020/12/03 02:43:28;;;;;;;13.48;9.43;;;2.10;99.90;;;;;;5020728;28;20053;-66
2020/12/03 02:45:55;;;;;;;10.40;9.30;;;2.10;99.90;;;;;;5031873;28;20403;-67
2020/12/03 02:48:21;;;;;;;10.98;8.57;;;2.10;99.90;;;;;;5026787;28;20055;-69
2020/12/03 02:50:48;;;;;;;12.80;9.68;;;2.10;99.90;;;;;;5020393;28;20752;-68
2020/12/03 02:53:15;;;;;;;14.85;11.10;;;2.10;99.90;;;;;;5027089;28;20069;-67
2020/12/03 02:55:41;;;;;;;11.63;9.32;;;2.10;99.90;;;;;;5019590;28;20053;-71
2020/12/03 02:58:08;;;;;;;17.80;11.30;;;2.10;99.90;;;;;;5025896;28;20056;-69
2020/12/03 03:00:34;;;;;;;11.52;9.63;;;2.10;99.90;;;;;;5020802;28;20148;-66
2020/12/03 03:03:01;;;;;;;14.45;9.95;;;2.10;99.90;;;;;;5019103;28;20049;-69
2020/12/03 03:05:27;;;;;;;15.45;11.00;;;2.10;99.90;;;;;;5026274;28;20360;-69
2020/12/03 03:07:53;;;;;;;14.00;11.20;;;2.10;99.90;;;;;;5015445;28;20075;-70
2020/12/03 03:10:38;;;;;;;12.90;10.07;;;2.10;99.90;;;;;;5021779;28;20095;-68
2020/12/03 03:13:05;;;;;;;13.80;9.98;;;2.00;99.90;;;;;;5027290;28;20045;-67
2020/12/03 03:15:31;;;;;;;14.00;10.73;;;2.00;99.90;;;;;;5015182;28;20089;-68
2020/12/03 03:17:58;;;;;;;13.05;10.20;;;2.10;99.90;;;;;;5027469;28;20144;-70
2020/12/03 03:20:24;;;;;;;16.63;9.35;;;2.10;99.90;;;;;;5027926;28;20049;-66
2020/12/03 03:22:51;;;;;;;12.65;9.80;;;2.10;99.90;;;;;;5026081;28;20057;-70
2020/12/03 03:25:18;;;;;;;12.82;10.80;;;2.10;99.90;;;;;;5026321;28;20056;-68
2020/12/03 03:27:44;;;;;;;14.27;10.82;;;2.00;99.90;;;;;;5030582;28;20131;-71
2020/12/03 03:30:10;;;;;;;14.50;10.80;;;2.10;99.90;;;;;;5023140;28;20038;-69
2020/12/03 03:32:37;;;;;;;15.90;10.30;;;2.00;99.90;;;;;;5024966;28;20045;-66
2020/12/03 03:35:05;;;;;;;13.60;9.75;;;2.00;99.90;;;;;;5024051;28;20057;-67
2020/12/03 03:37:33;;;;;;;15.18;11.15;;;2.10;99.90;;;;;;5026686;28;20048;-65
2020/12/03 03:40:05;;;;;;;14.00;10.60;;;2.10;99.90;;;;;;5027915;28;20041;-69
2020/12/03 03:42:31;;;;;;;14.50;10.88;;;2.10;99.90;;;;;;5024747;28;20049;-67
2020/12/03 03:44:57;;;;;;;15.02;11.25;;;2.00;99.90;;;;;;5027638;28;20144;-68
2020/12/03 03:47:24;;;;;;;15.95;11.43;;;2.10;99.90;;;;;;5024620;28;20053;-67
2020/12/03 03:49:50;;;;;;;15.93;11.77;;;2.10;99.90;;;;;;5031195;28;20143;-68
2020/12/03 03:52:18;;;;;;;15.60;12.10;;;2.10;99.90;;;;;;5023760;28;20417;-69
2020/12/03 03:54:44;;;;;;;14.65;11.23;;;2.10;99.90;;;;;;5026313;28;20045;-68
2020/12/03 03:57:10;;;;;;;16.67;11.82;;;2.10;99.90;;;;;;5033215;28;20046;-69
2020/12/03 03:59:37;;;;;;;14.48;11.57;;;2.10;99.90;;;;;;5025981;28;20101;-67
2020/12/03 04:02:03;;;;;;;18.42;12.25;;;2.10;99.90;;;;;;5027922;28;20828;-69
2020/12/03 04:04:30;;;;;;;17.23;12.10;;;2.10;99.90;;;;;;5023951;28;20053;-68
2020/12/03 04:06:56;;;;;;;18.00;13.00;;;2.10;99.90;;;;;;5024350;28;21503;-67
2020/12/03 04:09:23;;;;;;;15.85;12.50;;;2.00;99.90;;;;;;5029957;28;20048;-67
2020/12/03 04:11:50;;;;;;;18.10;12.23;;;2.10;99.90;;;;;;5023582;28;20503;-65
2020/12/03 04:14:17;;;;;;;15.00;12.32;;;2.00;99.90;;;;;;5025928;28;20053;-71
2020/12/03 04:16:43;;;;;;;17.88;12.35;;;2.00;99.90;;;;;;5030386;28;20157;-68
2020/12/03 04:19:10;;;;;;;17.73;12.88;;;2.00;99.90;;;;;;5023916;28;20048;-66
2020/12/03 04:21:37;;;;;;;14.07;11.80;;;2.10;99.90;;;;;;5031786;28;20040;-68
2020/12/03 04:24:04;;;;;;;18.73;13.23;;;2.00;99.90;;;;;;5027105;28;20528;-70
2020/12/03 04:26:30;;;;;;;18.23;13.43;;;2.00;99.90;;;;;;5022721;28;20140;-65
2020/12/03 04:28:57;;;;;;;22.50;14.85;;;2.00;99.90;;;;;;5029209;28;20060;-71
2020/12/03 04:31:23;;;;;;;16.77;13.90;;;2.00;99.90;;;;;;5025159;28;20092;-66
2020/12/03 04:33:50;;;;;;;18.48;13.00;;;2.00;99.90;;;;;;5031186;28;20748;-67
2020/12/03 04:36:16;;;;;;;15.88;13.20;;;2.00;99.90;;;;;;5028457;28;20104;-67
2020/12/03 04:38:43;;;;;;;17.90;14.30;;;2.00;99.90;;;;;;5022791;28;21003;-68
2020/12/03 04:41:10;;;;;;;20.13;13.35;;;2.00;99.90;;;;;;5032857;28;20055;-66
2020/12/03 04:43:59;;;;;;;15.80;12.65;;;2.00;99.90;;;;;;5023954;28;20849;-68
2020/12/03 04:47:08;;;;;;;17.33;11.88;;;2.00;99.90;;;;;;5026986;28;20405;-69
2020/12/03 04:50:02;;;;;;;19.40;13.27;;;2.00;99.90;;;;;;5024451;28;20052;-69
2020/12/03 04:52:56;;;;;;;17.75;13.27;;;2.00;99.90;;;;;;5023607;28;20057;-67
2020/12/03 04:55:53;;;;;;;20.73;14.18;;;2.00;99.90;;;;;;5027357;28;20065;-67
2020/12/03 04:58:44;;;;;;;14.98;12.82;;;2.00;99.90;;;;;;5008712;28;20055;-69
2020/12/03 05:01:20;;;;;;;23.83;14.10;;;2.10;99.90;;;;;;5021033;28;20041;-67
2020/12/03 05:04:08;;;;;;;18.75;13.55;;;2.00;99.90;;;;;;5026097;28;20051;-65
2020/12/03 05:06:46;;;;;;;22.35;16.17;;;2.00;99.90;;;;;;5020453;28;20056;-67
2020/12/03 05:09:29;;;;;;;20.92;14.95;;;2.10;99.90;;;;;;5028010;28;20045;-70
2020/12/03 05:12:23;;;;;;;25.45;16.38;;;2.00;99.90;;;;;;5024781;28;20045;-68
2020/12/03 05:14:54;;;;;;;24.80;15.85;;;2.00;99.90;;;;;;5020158;28;20046;-66
2020/12/03 05:18:02;;;;;;;22.02;16.45;;;2.10;99.90;;;;;;5030174;28;20076;-69
2020/12/03 05:20:39;;;;;;;24.77;17.48;;;2.10;99.90;;;;;;5026641;28;20845;-69
2020/12/03 05:23:16;;;;;;;26.17;14.88;;;2.10;99.90;;;;;;5023866;28;20045;-68
2020/12/03 05:25:44;;;;;;;23.02;14.93;;;2.10;99.90;;;;;;5024178;28;20092;-69
2020/12/03 05:28:33;;;;;;;22.45;14.60;;;2.20;99.90;;;;;;5022932;28;20187;-64
2020/12/03 05:31:14;;;;;;;18.38;14.52;;;2.20;99.90;;;;;;5020200;28;20045;-69
2020/12/03 05:33:41;;;;;;;26.83;15.82;;;2.20;99.90;;;;;;5025034;28;20057;-69
2020/12/03 05:36:25;;;;;;;23.30;15.10;;;2.10;99.90;;;;;;5023069;28;20049;-65
2020/12/03 05:38:52;;;;;;;21.80;15.20;;;2.20;99.90;;;;;;5019057;28;20068;-71
2020/12/03 05:41:21;;;;;;;25.13;15.10;;;2.10;99.90;;;;;;5023587;28;20045;-71
2020/12/03 05:43:47;;;;;;;27.23;16.70;;;2.10;99.90;;;;;;5023502;28;20152;-66
2020/12/03 05:46:16;;;;;;;19.17;14.32;;;2.10;99.90;;;;;;5026263;28;20092;-64
2020/12/03 05:48:58;;;;;;;20.58;12.77;;;2.10;99.90;;;;;;5024394;28;20591;-68
2020/12/03 05:51:29;;;;;;;22.80;16.13;;;2.10;99.90;;;;;;5025592;28;20063;-68
2020/12/03 05:54:07;;;;;;;25.00;16.00;;;2.10;99.90;;;;;;5028486;28;20057;-65
2020/12/03 05:56:33;;;;;;;24.80;17.00;;;2.20;99.90;;;;;;5024830;28;20054;-66
2020/12/03 05:59:17;;;;;;;24.95;17.05;;;2.20;99.90;;;;;;5019939;28;21039;-69
2020/12/03 06:02:06;;;;;;;21.48;15.65;;;2.20;99.90;;;;;;5026488;28;20128;-65
2020/12/03 06:04:41;;;;;;;25.10;16.55;;;2.20;99.90;;;;;;5023527;28;20067;-67
2020/12/03 06:07:31;;;;;;;21.75;17.25;;;2.20;99.90;;;;;;5026039;28;20167;-69
2020/12/03 06:10:16;;;;;;;23.83;17.38;;;2.20;99.90;;;;;;5026261;28;20167;-65
2020/12/03 06:13:11;;;;;;;25.27;17.00;;;2.20;99.90;;;;;;5022340;28;20041;-66
2020/12/03 06:15:43;;;;;;;26.42;17.55;;;2.20;99.90;;;;;;5023631;28;20049;-69
2020/12/03 06:18:39;;;;;;;24.25;16.30;;;2.20;99.90;;;;;;5027188;28;20041;-66
2020/12/03 06:21:29;;;;;;;27.75;16.77;;;2.20;99.90;;;;;;5018232;28;20435;-69
2020/12/03 06:24:33;;;;;;;22.98;16.35;;;2.20;99.90;;;;;;5007999;28;20048;-66
2020/12/03 06:27:19;;;;;;;30.45;16.58;;;2.20;99.90;;;;;;5026377;28;20041;-67
2020/12/03 06:30:28;;;;;;;24.30;15.23;;;2.20;99.90;;;;;;5021321;28;20056;-65
2020/12/03 06:33:30;;;;;;;29.80;18.65;;;2.30;99.90;;;;;;4962057;28;20058;-67
2020/12/03 06:36:45;;;;;;;24.92;16.23;;;2.30;99.90;;;;;;5028337;28;20044;-66
2020/12/03 06:39:27;;;;;;;29.98;18.98;;;2.20;99.90;;;;;;5017896;28;20049;-66
2020/12/03 06:42:02;;;;;;;30.20;18.08;;;2.20;99.90;;;;;;5022415;28;20488;-65
2020/12/03 06:45:01;;;;;;;25.75;16.60;;;2.30;99.90;;;;;;5030782;28;20049;-67
2020/12/03 06:48:01;;;;;;;24.88;17.65;;;2.20;99.90;;;;;;5014298;28;20061;-65
2020/12/03 06:50:59;;;;;;;28.55;18.52;;;2.20;99.90;;;;;;5021074;28;20088;-67
2020/12/03 06:54:24;;;;;;;36.38;19.38;;;2.20;99.90;;;;;;5029274;28;20929;-67
2020/12/03 06:57:05;;;;;;;27.70;18.10;;;2.20;99.90;;;;;;4969853;28;20253;-64
2020/12/03 07:00:00;;;;;;;27.73;18.17;;;2.30;99.90;;;;;;5030333;28;20056;-65
2020/12/03 07:02:54;;;;;;;27.33;16.05;;;2.30;99.90;;;;;;5026794;28;20053;-65
2020/12/03 07:06:01;;;;;;;27.50;18.48;;;2.30;99.90;;;;;;5027581;28;20061;-66
2020/12/03 07:08:30;;;;;;;25.25;16.92;;;2.30;99.90;;;;;;5028759;28;20064;-69
2020/12/03 07:11:12;;;;;;;28.15;17.88;;;2.30;99.90;;;;;;5027048;28;20102;-66
2020/12/03 07:14:00;;;;;;;23.77;16.95;;;2.30;99.90;;;;;;5027267;28;20060;-65
2020/12/03 07:17:05;;;;;;;30.80;17.55;;;2.30;99.90;;;;;;5023268;28;20052;-67
2020/12/03 07:19:46;;;;;;;25.73;17.45;;;2.30;99.90;;;;;;5027868;28;20045;-65
2020/12/03 07:22:21;;;;;;;24.88;16.40;;;2.30;99.90;;;;;;5025931;28;20067;-65
2020/12/03 07:24:49;;;;;;;24.23;15.77;;;2.30;99.90;;;;;;5031274;28;22048;-65
2020/12/03 07:27:42;;;;;;;24.90;16.45;;;2.40;99.90;;;;;;5031207;28;20044;-66
2020/12/03 07:30:36;;;;;;;24.25;18.42;;;2.40;99.90;;;;;;5012654;28;20069;-64
2020/12/03 07:33:12;;;;;;;26.88;16.67;;;2.40;99.90;;;;;;5028442;28;20595;-67
2020/12/03 07:36:00;;;;;;;21.63;15.38;;;2.40;99.90;;;;;;5031644;28;20076;-67
2020/12/03 07:38:27;;;;;;;24.63;14.90;;;2.40;99.90;;;;;;5029205;28;20070;-64
2020/12/03 07:40:55;;;;;;;27.73;17.63;;;2.40;99.90;;;;;;5032700;28;20045;-66
2020/12/03 07:43:24;;;;;;;27.60;15.80;;;2.40;99.90;;;;;;5025250;28;20129;-67
2020/12/03 07:45:51;;;;;;;24.75;17.67;;;2.40;99.90;;;;;;5025385;28;20049;-67
2020/12/03 07:48:41;;;;;;;23.90;14.23;;;2.40;99.90;;;;;;5031297;28;20053;-65
2020/12/03 07:51:09;;;;;;;19.73;13.80;;;2.40;99.90;;;;;;5026436;28;20068;-65
2020/12/03 07:53:36;;;;;;;26.52;15.43;;;2.50;99.90;;;;;;5029494;28;20126;-66
2020/12/03 07:56:21;;;;;;;23.50;16.50;;;2.50;99.90;;;;;;5025288;28;20076;-67
2020/12/03 07:58:47;;;;;;;25.17;16.45;;;2.50;99.90;;;;;;5028122;28;20069;-66
2020/12/03 08:01:26;;;;;;;26.05;16.55;;;2.50;99.90;;;;;;5055387;28;20053;-64
2020/12/03 08:03:54;;;;;;;20.90;15.25;;;2.50;99.90;;;;;;5035749;28;20041;-66
2020/12/03 08:06:24;;;;;;;24.08;16.90;;;2.50;99.90;;;;;;5023855;28;20054;-67
2020/12/03 08:09:02;;;;;;;25.00;15.88;;;2.50;99.90;;;;;;5026388;28;20049;-66
2020/12/03 08:11:56;;;;;;;24.52;15.60;;;2.50;99.90;;;;;;5025571;28;20140;-66
2020/12/03 08:14:37;;;;;;;27.88;15.50;;;2.50;99.90;;;;;;5023694;28;20056;-67
2020/12/03 08:17:15;;;;;;;26.65;15.88;;;2.50;99.90;;;;;;5004176;28;20144;-69
2020/12/03 08:19:45;;;;;;;23.77;16.67;;;2.50;99.90;;;;;;5009463;28;20052;-65
2020/12/03 08:22:26;;;;;;;22.88;16.92;;;2.60;99.90;;;;;;5002905;28;20072;-64
2020/12/03 08:25:05;;;;;;;30.65;18.38;;;2.70;99.90;;;;;;5005590;28;20053;-67
2020/12/03 08:27:32;;;;;;;20.10;15.57;;;2.70;99.90;;;;;;5005081;28;20053;-65
2020/12/03 08:29:58;;;;;;;24.65;16.38;;;2.70;99.90;;;;;;5008170;28;20724;-65
2020/12/03 08:32:24;;;;;;;21.35;14.77;;;2.60;99.90;;;;;;5007519;28;21095;-67
2020/12/03 08:34:51;;;;;;;21.80;16.15;;;2.60;99.90;;;;;;5011453;28;20065;-69
2020/12/03 08:37:21;;;;;;;26.90;16.38;;;2.60;99.90;;;;;;5004830;28;20057;-64
2020/12/03 08:39:53;;;;;;;28.98;18.10;;;2.60;99.90;;;;;;5010622;28;20485;-66
2020/12/03 08:42:20;;;;;;;23.23;16.42;;;2.70;99.90;;;;;;5005917;28;20159;-65
2020/12/03 08:44:49;;;;;;;22.17;16.35;;;2.70;99.90;;;;;;5004832;28;20555;-65
2020/12/03 08:47:42;;;;;;;23.92;16.08;;;2.70;99.90;;;;;;5014466;28;20045;-65
2020/12/03 08:50:16;;;;;;;24.38;16.13;;;2.70;99.90;;;;;;5008525;28;20045;-65
2020/12/03 08:52:45;;;;;;;20.88;15.93;;;2.70;99.90;;;;;;5003639;28;20088;-65
2020/12/03 08:55:12;;;;;;;23.92;16.17;;;2.70;99.90;;;;;;5006668;28;20124;-65
2020/12/03 08:57:45;;;;;;;20.92;14.32;;;2.70;99.90;;;;;;5006194;28;20971;-65
2020/12/03 09:00:18;;;;;;;22.85;16.98;;;2.70;99.90;;;;;;5003888;28;20049;-66
2020/12/03 09:02:46;;;;;;;27.33;17.15;;;2.80;99.90;;;;;;5000854;28;20045;-68
2020/12/03 09:05:15;;;;;;;20.33;14.35;;;2.80;99.90;;;;;;5006340;28;21093;-67
2020/12/03 09:07:46;;;;;;;24.90;16.38;;;2.80;99.90;;;;;;5008335;28;20049;-65
2020/12/03 09:10:15;;;;;;;24.85;14.88;;;2.80;99.90;;;;;;5007895;28;20092;-66
2020/12/03 09:12:46;;;;;;;25.52;17.58;;;2.80;99.90;;;;;;5000726;28;20371;-68
2020/12/03 09:15:16;;;;;;;26.02;16.00;;;2.80;99.90;;;;;;5007319;28;21148;-69
2020/12/03 09:17:54;;;;;;;24.08;16.52;;;2.80;99.90;;;;;;5013814;28;20550;-65
2020/12/03 09:20:21;;;;;;;23.63;18.27;;;2.80;99.90;;;;;;5029423;28;20045;-68
2020/12/03 09:22:47;;;;;;;25.35;18.17;;;2.80;99.90;;;;;;5028746;28;20560;-67
2020/12/03 09:25:14;;;;;;;31.17;19.30;;;2.80;99.90;;;;;;5022318;28;20088;-65
2020/12/03 09:27:44;;;;;;;30.55;19.65;;;2.90;99.90;;;;;;5031350;28;20047;-65
2020/12/03 09:30:20;;;;;;;26.33;18.63;;;2.90;99.90;;;;;;5022286;28;20071;-64
2020/12/03 09:32:57;;;;;;;25.88;19.35;;;2.90;99.90;;;;;;5021113;28;20055;-64
2020/12/03 09:35:26;;;;;;;33.08;19.67;;;2.80;99.90;;;;;;5022704;28;20053;-69
2020/12/03 09:38:00;;;;;;;29.17;20.30;;;2.90;99.90;;;;;;5021902;28;20088;-69
2020/12/03 09:40:28;;;;;;;29.23;18.90;;;2.80;99.90;;;;;;5022171;28;20132;-68
2020/12/03 09:42:55;;;;;;;35.25;19.23;;;2.80;99.90;;;;;;5028817;28;20037;-69
2020/12/03 09:45:24;;;;;;;32.63;20.52;;;2.90;99.90;;;;;;5023431;28;20484;-66
2020/12/03 09:47:52;;;;;;;31.13;20.17;;;2.90;99.90;;;;;;5030057;28;20049;-64
2020/12/03 09:50:22;;;;;;;26.02;18.88;;;2.80;99.90;;;;;;5025007;28;20049;-65
2020/12/03 09:52:50;;;;;;;32.38;21.77;;;2.90;99.90;;;;;;5023261;28;20045;-66
2020/12/03 09:55:17;;;;;;;35.15;22.52;;;2.80;99.90;;;;;;5031820;28;20378;-65
2020/12/03 09:57:55;;;;;;;32.33;20.02;;;2.90;99.90;;;;;;5022759;28;20060;-68
2020/12/03 10:00:27;;;;;;;29.52;21.90;;;2.90;99.90;;;;;;5028039;28;20508;-66
2020/12/03 10:02:54;;;;;;;31.15;20.50;;;2.90;99.90;;;;;;5021436;28;20038;-67
2020/12/03 10:05:23;;;;;;;32.75;21.45;;;2.90;99.90;;;;;;5023188;28;20123;-68
2020/12/03 10:08:20;;;;;;;30.67;21.60;;;2.90;99.90;;;;;;5023072;28;20046;-67
2020/12/03 10:11:04;;;;;;;32.00;21.52;;;2.90;99.90;;;;;;5023554;28;20045;-66
2020/12/03 10:14:03;;;;;;;31.70;21.27;;;2.90;99.90;;;;;;5022254;28;20044;-65
2020/12/03 10:16:38;;;;;;;31.23;23.85;;;2.90;99.90;;;;;;5026204;28;20046;-66
2020/12/03 10:19:09;;;;;;;30.60;21.42;;;2.90;99.90;;;;;;5029104;28;20051;-65
2020/12/03 10:21:41;;;;;;;32.38;21.45;;;3.00;99.90;;;;;;5025973;28;20081;-66
2020/12/03 10:24:23;;;;;;;34.53;21.35;;;3.00;99.90;;;;;;5022910;28;20060;-65
2020/12/03 10:27:22;;;;;;;37.88;22.42;;;2.90;99.90;;;;;;5025789;28;20053;-66
2020/12/03 10:30:18;;;;;;;32.38;23.42;;;2.90;99.90;;;;;;5026539;28;20061;-69
2020/12/03 10:32:47;;;;;;;35.67;22.52;;;2.90;99.90;;;;;;5020568;28;20063;-66
2020/12/03 10:35:14;;;;;;;33.40;22.52;;;2.90;99.90;;;;;;5031656;28;20051;-65
2020/12/03 10:37:47;;;;;;;34.45;24.33;;;2.90;99.90;;;;;;5026153;28;20537;-65
2020/12/03 10:40:13;;;;;;;33.10;22.27;;;2.90;99.90;;;;;;5026493;28;20065;-66
2020/12/03 10:42:46;;;;;;;32.30;22.00;;;2.90;99.90;;;;;;5029748;28;21479;-65
2020/12/03 10:45:17;;;;;;;28.33;21.35;;;3.00;99.90;;;;;;5022627;28;20055;-65
2020/12/03 10:47:52;;;;;;;30.05;20.85;;;3.00;99.90;;;;;;5027068;28;20046;-67
2020/12/03 10:50:20;;;;;;;32.25;21.13;;;3.00;99.90;;;;;;5031345;28;20408;-66
2020/12/03 10:52:47;;;;;;;35.78;21.98;;;3.00;99.90;;;;;;5019733;28;20077;-65
2020/12/03 10:55:18;;;;;;;28.67;19.30;;;3.00;99.90;;;;;;5029616;28;20057;-64
2020/12/03 10:57:55;;;;;;;31.80;21.25;;;3.00;99.90;;;;;;5028182;28;20123;-66
2020/12/03 11:00:22;;;;;;;30.35;18.77;;;3.10;99.90;;;;;;5026696;28;20894;-65
2020/12/03 11:02:52;;;;;;;29.40;20.05;;;3.10;99.90;;;;;;5031975;28;20055;-67
2020/12/03 11:05:18;;;;;;;30.23;20.67;;;3.10;99.90;;;;;;5020793;28;20061;-67
2020/12/03 11:07:53;;;;;;;28.38;20.67;;;3.10;99.90;;;;;;5030121;28;20041;-66
2020/12/03 11:10:20;;;;;;;26.77;19.55;;;3.20;99.90;;;;;;5023944;28;20042;-64
2020/12/03 11:12:49;;;;;;;28.27;19.98;;;3.20;99.90;;;;;;5018260;28;20410;-65
2020/12/03 11:15:19;;;;;;;27.33;19.27;;;3.20;99.90;;;;;;5032454;28;20053;-65
2020/12/03 11:17:53;;;;;;;30.00;20.90;;;3.20;99.90;;;;;;5019253;28;20104;-66
2020/12/03 11:20:41;;;;;;;28.90;20.30;;;3.20;99.90;;;;;;5020860;28;20045;-66
2020/12/03 11:23:27;;;;;;;27.75;19.38;;;3.30;99.90;;;;;;5029004;28;20107;-66
2020/12/03 11:26:06;;;;;;;31.08;20.70;;;3.30;99.90;;;;;;5025705;28;20056;-65
2020/12/03 11:28:38;;;;;;;28.95;21.10;;;3.30;99.90;;;;;;5021614;28;20049;-67
2020/12/03 11:31:10;;;;;;;32.05;22.73;;;3.30;99.90;;;;;;5024952;28;20048;-68
2020/12/03 11:33:41;;;;;;;33.05;23.73;;;3.30;99.90;;;;;;5023897;28;20065;-65
2020/12/03 11:36:15;;;;;;;28.00;20.83;;;3.40;99.90;;;;;;5022401;28;20049;-66
2020/12/03 11:38:54;;;;;;;33.42;21.70;;;3.40;99.90;;;;;;5023852;28;20410;-66
2020/12/03 11:41:28;;;;;;;35.05;23.60;;;3.40;99.90;;;;;;5022830;28;20064;-66
2020/12/03 11:49:01;;;;;;;29.77;21.27;;;3.40;99.90;;;;;;5022637;28;20053;-70
2020/12/03 11:51:33;;;;;;;28.38;19.20;;;3.40;99.90;;;;;;5025468;28;20068;-67
2020/12/03 11:54:03;;;;;;;34.00;22.33;;;3.40;99.90;;;;;;5026660;28;20045;-67
2020/12/03 11:56:30;;;;;;;25.60;18.85;;;3.40;99.90;;;;;;5026615;28;20541;-70
2020/12/03 11:59:15;;;;;;;30.08;21.88;;;3.40;99.90;;;;;;5031220;28;20053;-64
2020/12/03 12:01:59;;;;;;;27.70;20.63;;;3.40;99.90;;;;;;5029891;28;20045;-69
2020/12/03 12:04:41;;;;;;;30.95;19.88;;;3.50;99.90;;;;;;5027768;28;20209;-71
2020/12/03 12:12:07;;;;;;;28.88;19.23;;;3.50;99.90;;;;;;5025307;28;20175;-67
2020/12/03 12:14:33;;;;;;;34.47;20.58;;;3.50;99.90;;;;;;5026004;28;20147;-70
2020/12/03 12:17:00;;;;;;;28.83;21.00;;;3.50;99.90;;;;;;5024948;28;20881;-66
2020/12/03 12:19:28;;;;;;;28.00;18.75;;;3.50;99.90;;;;;;5022685;28;20053;-65
2020/12/03 12:21:56;;;;;;;29.80;19.52;;;3.50;99.90;;;;;;5027618;28;20044;-68
2020/12/03 12:24:23;;;;;;;32.92;17.80;;;3.50;99.90;;;;;;5027892;28;20060;-71
2020/12/03 12:26:50;;;;;;;24.55;16.83;;;3.50;99.90;;;;;;5019942;28;20591;-69
2020/12/03 12:29:16;;;;;;;25.70;18.15;;;3.60;99.90;;;;;;5024185;28;20143;-79
2020/12/03 12:31:43;;;;;;;25.88;16.05;;;3.50;99.90;;;;;;5027947;28;20049;-72
2020/12/03 12:34:09;;;;;;;32.38;20.08;;;3.50;99.90;;;;;;5025933;28;20123;-69
2020/12/03 12:36:36;;;;;;;27.75;16.45;;;3.60;99.90;;;;;;5023771;28;20115;-75
2020/12/03 12:39:03;;;;;;;32.25;18.70;;;3.60;99.90;;;;;;5026532;28;20143;-69
2020/12/03 12:41:29;;;;;;;25.65;17.63;;;3.60;99.90;;;;;;5024212;28;20045;-70
2020/12/03 12:43:56;;;;;;;25.95;16.92;;;3.50;99.90;;;;;;5028796;28;20138;-68
2020/12/03 12:46:24;;;;;;;29.98;18.58;;;3.50;99.90;;;;;;5027981;28;20732;-71
2020/12/03 12:48:51;;;;;;;23.35;17.13;;;3.50;99.90;;;;;;5026155;28;20541;-75
2020/12/03 12:51:18;;;;;;;22.38;17.08;;;3.50;99.90;;;;;;5019607;28;20045;-76
2020/12/03 12:53:45;;;;;;;26.00;15.65;;;3.50;99.90;;;;;;5022147;28;20118;-70
2020/12/03 12:56:13;;;;;;;22.75;15.60;;;3.50;99.90;;;;;;5026121;28;20049;-73
2020/12/03 12:58:39;;;;;;;29.83;17.80;;;3.50;99.90;;;;;;5021728;28;20045;-72
2020/12/03 13:01:06;;;;;;;25.33;15.60;;;3.50;99.90;;;;;;5023764;28;20049;-73
2020/12/03 13:03:33;;;;;;;24.15;16.05;;;3.50;99.90;;;;;;5024486;28;20469;-79
2020/12/03 13:05:59;;;;;;;24.40;15.63;;;3.50;99.90;;;;;;5028467;28;20049;-70
2020/12/03 13:08:27;;;;;;;23.02;14.75;;;3.50;99.90;;;;;;5026245;28;20076;-70
2020/12/03 13:10:54;;;;;;;25.67;15.98;;;3.50;99.90;;;;;;5025415;28;20049;-74
2020/12/03 13:13:27;;;;;;;19.35;15.23;;;3.50;99.90;;;;;;5027031;28;20229;-78
2020/12/03 13:15:54;;;;;;;23.73;15.60;;;3.40;99.90;;;;;;5033980;28;20483;-68
2020/12/03 13:18:21;;;;;;;22.60;14.50;;;3.50;99.90;;;;;;5018088;28;20037;-74
2020/12/03 13:20:48;;;;;;;21.77;14.57;;;3.50;99.90;;;;;;5027177;28;20045;-72